Station History

Weather Underground - logo

Station Historical Data
Daily Summary for July 25, 2017 Units:  English    Metric   Both
« Previous Day
Next Day »
Daily Weekly Monthly Yearly Custom
  High: Low: Average:
Temperature: TemperatureF °F 67.8 °F 82.6 °F
Dew Point: DewpointF °F 50.6 °F 56.3 °F
Humidity: Humidity % 23 % 43 %
Wind Speed: WindSpeedMPH mph 0.0 mph 1.5 mph
Wind Gust: WindSpeedGustMPH mph - -
Wind:- - West
Pressure: PressureIn in 29.77 in -
Precipitation: 0.00 in    
Historical Graphs
 
 
Tabular Data for July 25, 2017
Time Temperature Dew Point Pressure Wind Wind Speed Wind Gust Humidity Rainfall Rate (Hourly)
TemperatureF °F DewpointF °F PressureIn in Calm     Humidity % HourlyPrecipIn in
00:00 74.7 °F 53.7 °F 29.78 in Calm     48 % 0.00 in
00:05 74.3 °F 52.8 °F 29.77 in Calm     47 % 0.00 in
00:10 74.1 °F 53.2 °F 29.78 in Calm     48 % 0.00 in
00:15 74.0 °F 53.1 °F 29.77 in Calm     48 % 0.00 in
00:20 73.8 °F 51.7 °F 29.78 in Calm     46 % 0.00 in
00:25 73.8 °F 51.1 °F 29.78 in Calm     45 % 0.00 in
00:30 74.0 °F 52.5 °F 29.78 in Calm     47 % 0.00 in
00:32 74.0 °F 51.9 °F 29.78 in Calm     46 % 0.00 in
00:37 73.9 °F 51.8 °F 29.78 in Calm     46 % 0.00 in
00:42 73.8 °F 51.1 °F 29.78 in Calm     45 % 0.00 in
00:47 73.9 °F 50.6 °F 29.78 in Calm     44 % 0.00 in
00:52 73.9 °F 51.2 °F 29.78 in Calm     45 % 0.00 in
00:57 73.6 °F 51.5 °F 29.78 in SE 1.2 mph   46 % 0.00 in
01:03 73.3 °F 51.3 °F 29.79 in Calm     46 % 0.00 in
01:08 73.2 °F 51.2 °F 29.79 in ESE 1.2 mph   46 % 0.00 in
01:13 72.9 °F 52.1 °F 29.79 in Calm     48 % 0.00 in
01:18 72.6 °F 51.2 °F 29.79 in Calm     47 % 0.00 in
01:23 72.5 °F 51.7 °F 29.79 in Calm     48 % 0.00 in
01:28 72.3 °F 50.9 °F 29.79 in Calm     47 % 0.00 in
01:33 72.2 °F 51.4 °F 29.79 in Calm     48 % 0.00 in
01:38 72.0 °F 50.7 °F 29.79 in Calm     47 % 0.00 in
01:43 71.8 °F 51.0 °F 29.79 in Calm     48 % 0.00 in
01:48 71.5 °F 51.9 °F 29.78 in Calm     50 % 0.00 in
01:53 71.2 °F 52.1 °F 29.79 in Calm     51 % 0.00 in
01:58 71.0 °F 52.0 °F 29.78 in Calm     51 % 0.00 in
02:03 70.8 °F 51.8 °F 29.78 in Calm     51 % 0.00 in
02:08 70.9 °F 52.4 °F 29.79 in Calm     52 % 0.00 in
02:13 71.1 °F 51.5 °F 29.79 in Calm     50 % 0.00 in
02:18 71.5 °F 51.3 °F 29.79 in Calm     49 % 0.00 in
02:23 71.8 °F 52.2 °F 29.79 in Calm     50 % 0.00 in
02:24 71.8 °F 51.6 °F 29.79 in Calm     49 % 0.00 in
02:29 71.7 °F 52.1 °F 29.79 in Calm     50 % 0.00 in
02:34 71.7 °F 52.6 °F 29.79 in Calm     51 % 0.00 in
02:39 71.5 °F 52.9 °F 29.79 in Calm     52 % 0.00 in
02:44 71.5 °F 52.9 °F 29.79 in Calm     52 % 0.00 in
02:49 71.5 °F 52.4 °F 29.80 in Calm     51 % 0.00 in
02:54 71.4 °F 55.4 °F 29.80 in Calm     57 % 0.00 in
02:59 71.2 °F 54.2 °F 29.80 in Calm     55 % 0.00 in
03:04 71.1 °F 53.6 °F 29.80 in Calm     54 % 0.00 in
03:09 71.1 °F 52.6 °F 29.80 in Calm     52 % 0.00 in
03:14 70.9 °F 52.4 °F 29.80 in Calm     52 % 0.00 in
03:19 70.8 °F 51.8 °F 29.80 in Calm     51 % 0.00 in
03:24 70.7 °F 51.7 °F 29.80 in Calm     51 % 0.00 in
03:29 70.3 °F 52.4 °F 29.80 in Calm     53 % 0.00 in
03:34 69.9 °F 53.0 °F 29.80 in Calm     55 % 0.00 in
03:39 69.4 °F 53.5 °F 29.80 in Calm     57 % 0.00 in
03:44 69.0 °F 52.6 °F 29.80 in Calm     56 % 0.00 in
03:49 68.8 °F 52.9 °F 29.80 in Calm     57 % 0.00 in
03:54 68.6 °F 52.8 °F 29.81 in Calm     57 % 0.00 in
03:59 68.5 °F 53.1 °F 29.81 in Calm     58 % 0.00 in
04:02 68.4 °F 52.6 °F 29.81 in Calm     57 % 0.00 in
04:07 68.4 °F 53.0 °F 29.81 in Calm     58 % 0.00 in
04:12 68.3 °F 53.4 °F 29.81 in Calm     59 % 0.00 in
04:17 68.3 °F 52.9 °F 29.82 in Calm     58 % 0.00 in
04:22 68.7 °F 52.4 °F 29.82 in Calm     56 % 0.00 in
04:27 68.9 °F 52.6 °F 29.82 in Calm     56 % 0.00 in
04:32 69.1 °F 52.7 °F 29.82 in Calm     56 % 0.00 in
04:37 69.2 °F 52.8 °F 29.82 in Calm     56 % 0.00 in
04:42 69.2 °F 52.8 °F 29.82 in Calm     56 % 0.00 in
04:47 69.1 °F 53.2 °F 29.82 in Calm     57 % 0.00 in
04:52 68.9 °F 53.0 °F 29.82 in Calm     57 % 0.00 in
04:57 68.8 °F 53.9 °F 29.82 in Calm     59 % 0.00 in
05:02 68.6 °F 53.7 °F 29.82 in Calm     59 % 0.00 in
05:07 68.4 °F 55.3 °F 29.83 in Calm     63 % 0.00 in
05:08 68.4 °F 54.9 °F 29.82 in Calm     62 % 0.00 in
05:13 68.6 °F 53.2 °F 29.82 in Calm     58 % 0.00 in
05:18 68.9 °F 53.5 °F 29.82 in Calm     58 % 0.00 in
05:23 69.0 °F 54.1 °F 29.82 in Calm     59 % 0.00 in
05:28 68.9 °F 54.0 °F 29.82 in Calm     59 % 0.00 in
05:33 68.9 °F 54.4 °F 29.82 in Calm     60 % 0.00 in
05:38 68.9 °F 56.2 °F 29.83 in Calm     64 % 0.00 in
05:43 68.6 °F 55.5 °F 29.83 in Calm     63 % 0.00 in
05:48 68.4 °F 56.6 °F 29.83 in Calm     66 % 0.00 in
05:53 68.1 °F 56.3 °F 29.83 in Calm     66 % 0.00 in
05:58 68.0 °F 56.2 °F 29.83 in Calm     66 % 0.00 in
06:03 68.1 °F 57.1 °F 29.83 in Calm     68 % 0.00 in
06:08 68.1 °F 57.9 °F 29.83 in Calm     70 % 0.00 in
06:13 68.1 °F 57.1 °F 29.83 in Calm     68 % 0.00 in
06:18 68.0 °F 57.0 °F 29.83 in Calm     68 % 0.00 in
06:23 67.9 °F 57.8 °F 29.83 in Calm     70 % 0.00 in
06:28 67.8 °F 57.7 °F 29.83 in Calm     70 % 0.00 in
06:33 67.8 °F 57.3 °F 29.83 in Calm     69 % 0.00 in
06:38 67.9 °F 58.1 °F 29.83 in Calm     71 % 0.00 in
06:43 68.1 °F 57.9 °F 29.83 in Calm     70 % 0.00 in
06:48 68.3 °F 59.3 °F 29.84 in Calm     73 % 0.00 in
06:53 68.4 °F 58.6 °F 29.84 in Calm     71 % 0.00 in
06:54 68.4 °F 58.2 °F 29.84 in Calm     70 % 0.00 in
06:59 68.6 °F 57.6 °F 29.84 in Calm     68 % 0.00 in
07:04 69.0 °F 58.0 °F 29.84 in Calm     68 % 0.00 in
07:09 70.2 °F 59.1 °F 29.84 in Calm     68 % 0.00 in
07:14 71.7 °F 59.3 °F 29.84 in Calm     65 % 0.00 in
07:19 72.8 °F 59.9 °F 29.85 in Calm     64 % 0.00 in
07:20 72.9 °F 60.0 °F 29.85 in Calm     64 % 0.00 in
07:25 73.2 °F 60.3 °F 29.85 in Calm     64 % 0.00 in
07:30 73.9 °F 60.5 °F 29.85 in Calm     63 % 0.00 in
07:35 74.7 °F 60.4 °F 29.85 in Calm     61 % 0.00 in
07:40 75.2 °F 59.9 °F 29.85 in Calm     59 % 0.00 in
07:45 75.6 °F 60.3 °F 29.85 in Calm     59 % 0.00 in
07:49 76.6 °F 60.7 °F 29.85 in Calm     58 % 0.00 in
07:54 77.2 °F 60.3 °F 29.85 in Calm     56 % 0.00 in
07:59 77.4 °F 61.0 °F 29.85 in Calm     57 % 0.00 in
08:04 78.0 °F 61.0 °F 29.85 in Calm     56 % 0.00 in
08:09 79.1 °F 61.0 °F 29.85 in Calm     54 % 0.00 in
08:14 79.4 °F 61.8 °F 29.85 in Calm     55 % 0.00 in
08:19 79.4 °F 61.3 °F 29.85 in West 1.2 mph 1.2 mph 54 % 0.00 in
08:24 79.6 °F 61.0 °F 29.85 in WNW 1.2 mph 1.2 mph 53 % 0.00 in
08:29 79.2 °F 61.1 °F 29.85 in Calm   0.1 mph 54 % 0.00 in
08:34 79.6 °F 62.0 °F 29.85 in North 1.2 mph 1.2 mph 55 % 0.00 in
08:39 80.0 °F 62.4 °F 29.85 in Calm     55 % 0.00 in
08:44 80.1 °F 61.4 °F 29.85 in NNW 1.2 mph 1.2 mph 53 % 0.00 in
08:49 80.3 °F 61.1 °F 29.85 in NNW 2.3 mph   52 % 0.00 in
08:54 80.4 °F 61.7 °F 29.85 in Calm     53 % 0.00 in
08:59 80.9 °F 61.6 °F 29.85 in NNW 1.2 mph 1.2 mph 52 % 0.00 in
09:00 81.0 °F 61.7 °F 29.85 in NNW 1.2 mph 1.2 mph 52 % 0.00 in
09:05 81.4 °F 61.5 °F 29.85 in NW 1.2 mph 1.2 mph 51 % 0.00 in
09:10 81.8 °F 61.9 °F 29.85 in NE 2.0 mph 2.0 mph 51 % 0.00 in
09:15 82.5 °F 62.0 °F 29.86 in SE 1.2 mph 1.2 mph 50 % 0.00 in
09:20 83.2 °F 62.6 °F 29.86 in East 1.0 mph 1.0 mph 50 % 0.00 in
09:25 83.8 °F 62.6 °F 29.86 in West 2.3 mph 2.3 mph 49 % 0.00 in
09:30 83.8 °F 63.2 °F 29.86 in NW 1.2 mph   50 % 0.00 in
09:35 84.1 °F 64.0 °F 29.86 in ESE 1.0 mph   51 % 0.00 in
09:40 84.8 °F 63.5 °F 29.86 in West 2.3 mph 2.3 mph 49 % 0.00 in
09:45 84.7 °F 64.0 °F 29.86 in NE 2.3 mph 2.3 mph 50 % 0.00 in
09:50 85.1 °F 63.2 °F 29.86 in WNW 2.3 mph 2.3 mph 48 % 0.00 in
09:55 85.5 °F 63.0 °F 29.86 in NNE 3.5 mph   47 % 0.00 in
10:00 85.9 °F 59.5 °F 29.86 in WNW 1.2 mph 1.2 mph 41 % 0.00 in
10:05 85.8 °F 56.5 °F 29.86 in NNE 2.3 mph 2.3 mph 37 % 0.00 in
10:10 86.4 °F 61.3 °F 29.86 in NNE 2.0 mph 2.0 mph 43 % 0.00 in
10:15 87.2 °F 60.6 °F 29.86 in SE 3.5 mph 3.5 mph 41 % 0.00 in
10:20 87.4 °F 60.1 °F 29.86 in North 1.2 mph 1.2 mph 40 % 0.00 in
10:25 87.4 °F 54.8 °F 29.86 in WNW 2.3 mph 2.3 mph 33 % 0.00 in
10:30 87.4 °F 55.6 °F 29.86 in NNW 2.3 mph 2.3 mph 34 % 0.00 in
10:35 87.7 °F 53.3 °F 29.86 in WNW 2.3 mph 2.3 mph 31 % 0.00 in
10:40 87.8 °F 55.1 °F 29.86 in NNW 2.3 mph   33 % 0.00 in
10:45 88.0 °F 55.3 °F 29.86 in WNW 2.3 mph 2.3 mph 33 % 0.00 in
10:50 88.5 °F 54.9 °F 29.86 in SW 2.3 mph 2.3 mph 32 % 0.00 in
10:55 89.1 °F 56.2 °F 29.86 in West 1.2 mph 1.2 mph 33 % 0.00 in
11:00 89.1 °F 60.9 °F 29.86 in Calm   0.3 mph 39 % 0.00 in
11:05 89.1 °F 57.1 °F 29.86 in NW 2.3 mph 2.3 mph 34 % 0.00 in
11:11 89.1 °F 58.7 °F 29.86 in WSW 3.0 mph 3.0 mph 36 % 0.00 in
11:16 89.6 °F 60.6 °F 29.86 in WNW 1.2 mph 1.2 mph 38 % 0.00 in
11:21 90.0 °F 59.5 °F 29.86 in West 2.3 mph 2.3 mph 36 % 0.00 in
11:26 90.2 °F 60.4 °F 29.86 in WNW 4.0 mph 4.0 mph 37 % 0.00 in
11:31 90.3 °F 60.5 °F 29.86 in NNW 2.3 mph 2.3 mph 37 % 0.00 in
11:36 90.4 °F 61.3 °F 29.86 in East 1.2 mph 1.2 mph 38 % 0.00 in
11:41 90.8 °F 59.4 °F 29.86 in North 1.2 mph 1.7 mph 35 % 0.00 in
11:45 91.1 °F 61.2 °F 29.86 in NNW 3.5 mph 3.5 mph 37 % 0.00 in
11:51 91.4 °F 57.4 °F 29.86 in NW 3.5 mph 3.5 mph 32 % 0.00 in
11:56 91.3 °F 58.2 °F 29.86 in NW 2.3 mph 2.3 mph 33 % 0.00 in
12:01 91.5 °F 57.5 °F 29.86 in NW 2.3 mph 2.3 mph 32 % 0.00 in
12:06 92.1 °F 58.9 °F 29.86 in NNW 1.2 mph 1.2 mph 33 % 0.00 in
12:11 92.3 °F 56.4 °F 29.85 in NW 3.5 mph 3.5 mph 30 % 0.00 in
12:16 92.0 °F 57.0 °F 29.85 in East 3.5 mph 3.5 mph 31 % 0.00 in
12:21 92.1 °F 56.2 °F 29.85 in NW 2.3 mph 2.3 mph 30 % 0.00 in
12:26 91.9 °F 57.8 °F 29.85 in WSW 3.5 mph 3.5 mph 32 % 0.00 in
12:31 92.2 °F 54.4 °F 29.85 in NW 3.5 mph 3.5 mph 28 % 0.00 in
12:36 92.0 °F 56.1 °F 29.85 in West 5.0 mph 5.0 mph 30 % 0.00 in
12:41 92.1 °F 53.3 °F 29.85 in WNW 2.3 mph 2.3 mph 27 % 0.00 in
12:46 91.9 °F 53.1 °F 29.85 in West 3.5 mph 3.5 mph 27 % 0.00 in
12:51 92.4 °F 53.6 °F 29.84 in NNW 3.5 mph 3.5 mph 27 % 0.00 in
12:56 92.4 °F 52.5 °F 29.84 in NNW 3.5 mph 3.5 mph 26 % 0.00 in
13:01 92.4 °F 54.6 °F 29.84 in NW 3.5 mph 3.5 mph 28 % 0.00 in
13:06 93.0 °F 56.0 °F 29.84 in WNW 3.5 mph 3.5 mph 29 % 0.00 in
13:11 92.9 °F 56.0 °F 29.84 in NNW 3.0 mph 3.0 mph 29 % 0.00 in
13:16 93.1 °F 55.2 °F 29.84 in NW 3.5 mph 3.5 mph 28 % 0.00 in
13:21 93.2 °F 56.2 °F 29.84 in NW 4.0 mph 4.0 mph 29 % 0.00 in
13:23 93.4 °F 56.4 °F 29.83 in SSW 4.6 mph 4.6 mph 29 % 0.00 in
13:28 93.7 °F 56.6 °F 29.83 in West 4.6 mph 4.6 mph 29 % 0.00 in
13:33 93.6 °F 56.6 °F 29.83 in NNW 3.5 mph 3.5 mph 29 % 0.00 in
13:38 93.3 °F 56.3 °F 29.83 in NNE 3.5 mph 3.5 mph 29 % 0.00 in
13:43 93.7 °F 57.6 °F 29.83 in NW 3.5 mph 3.5 mph 30 % 0.00 in
13:48 94.2 °F 58.0 °F 29.83 in NNW 3.5 mph 3.5 mph 30 % 0.00 in
13:53 94.0 °F 56.9 °F 29.83 in North 3.5 mph 3.5 mph 29 % 0.00 in
13:57 94.1 °F 57.0 °F 29.83 in NNW 5.0 mph 5.0 mph 29 % 0.00 in
13:58 94.1 °F 58.8 °F 29.83 in NW 4.6 mph 4.6 mph 31 % 0.00 in
14:03 94.4 °F 59.1 °F 29.83 in NW 3.5 mph 3.5 mph 31 % 0.00 in
14:08 94.5 °F 56.4 °F 29.82 in NW 1.2 mph 1.2 mph 28 % 0.00 in
14:13 94.7 °F 57.5 °F 29.82 in WNW 4.6 mph 4.6 mph 29 % 0.00 in
14:18 94.6 °F 57.4 °F 29.82 in NW 3.5 mph 3.5 mph 29 % 0.00 in
14:23 94.9 °F 58.6 °F 29.82 in NW 3.5 mph 3.5 mph 30 % 0.00 in
14:28 94.8 °F 58.5 °F 29.82 in NW 4.6 mph 4.6 mph 30 % 0.00 in
14:33 95.2 °F 57.0 °F 29.82 in WNW 3.5 mph 3.5 mph 28 % 0.00 in
14:38 95.2 °F 54.9 °F 29.82 in NW 3.5 mph 3.5 mph 26 % 0.00 in
14:43 95.3 °F 57.0 °F 29.82 in NNW 3.5 mph 3.5 mph 28 % 0.00 in
14:48 95.7 °F 55.3 °F 29.82 in WNW 3.5 mph 3.5 mph 26 % 0.00 in
14:53 95.6 °F 56.3 °F 29.82 in NW 4.6 mph 4.6 mph 27 % 0.00 in
14:58 95.9 °F 56.5 °F 29.81 in NW 3.5 mph 3.5 mph 27 % 0.00 in
15:03 95.7 °F 55.3 °F 29.81 in WNW 5.8 mph 5.8 mph 26 % 0.00 in
15:08 95.7 °F 56.4 °F 29.81 in NW 3.5 mph 3.5 mph 27 % 0.00 in
15:13 95.9 °F 54.4 °F 29.81 in WNW 3.5 mph 3.5 mph 25 % 0.00 in
15:18 95.8 °F 54.3 °F 29.81 in NNW 6.9 mph 6.9 mph 25 % 0.00 in
15:23 95.4 °F 54.0 °F 29.81 in WNW 4.6 mph 4.6 mph 25 % 0.00 in
15:28 95.6 °F 54.2 °F 29.81 in West 3.5 mph 3.5 mph 25 % 0.00 in
15:33 95.7 °F 55.3 °F 29.80 in NNW 3.5 mph 3.5 mph 26 % 0.00 in
15:38 95.5 °F 58.2 °F 29.80 in WNW 3.5 mph 3.5 mph 29 % 0.00 in
15:43 96.0 °F 56.6 °F 29.81 in NW 3.5 mph 3.5 mph 27 % 0.00 in
15:48 96.2 °F 56.8 °F 29.80 in WNW 3.5 mph 3.5 mph 27 % 0.00 in
15:54 96.1 °F 56.7 °F 29.80 in WNW 5.8 mph 5.8 mph 27 % 0.00 in
15:59 96.0 °F 57.6 °F 29.80 in WNW 3.0 mph 3.0 mph 28 % 0.00 in
16:04 96.6 °F 57.1 °F 29.80 in West 3.5 mph 3.5 mph 27 % 0.00 in
16:09 96.9 °F 56.3 °F 29.80 in WNW 3.5 mph 3.5 mph 26 % 0.00 in
16:14 96.6 °F 58.2 °F 29.80 in NNW 6.0 mph 6.0 mph 28 % 0.00 in
16:19 96.7 °F 57.2 °F 29.80 in NW 3.5 mph 3.5 mph 27 % 0.00 in
16:24 96.5 °F 57.1 °F 29.80 in NW 3.5 mph 3.5 mph 27 % 0.00 in
16:29 96.8 °F 57.3 °F 29.79 in NNW 3.5 mph 3.5 mph 27 % 0.00 in
16:34 96.7 °F 55.1 °F 29.79 in North 5.8 mph 5.8 mph 25 % 0.00 in
16:39 96.5 °F 56.0 °F 29.79 in NW 3.5 mph 3.5 mph 26 % 0.00 in
16:44 96.6 °F 53.9 °F 29.79 in NW 3.5 mph 3.5 mph 24 % 0.00 in
16:49 96.8 °F 55.2 °F 29.79 in NNW 6.9 mph 6.9 mph 25 % 0.00 in
16:54 96.7 °F 56.2 °F 29.79 in NW 6.0 mph 6.0 mph 26 % 0.00 in
16:59 96.9 °F 55.3 °F 29.79 in NW 3.5 mph 3.5 mph 25 % 0.00 in
17:02 96.8 °F 56.3 °F 29.79 in NW 5.0 mph 5.0 mph 26 % 0.00 in
17:07 97.0 °F 55.3 °F 29.79 in NW 3.5 mph 3.5 mph 25 % 0.00 in
17:12 96.9 °F 55.3 °F 29.78 in NW 3.5 mph 3.5 mph 25 % 0.00 in
17:17 96.8 °F 52.9 °F 29.78 in WNW 5.8 mph 5.8 mph 23 % 0.00 in
17:22 96.8 °F 52.9 °F 29.78 in NNE 3.5 mph 3.5 mph 23 % 0.00 in
17:27 96.8 °F 52.9 °F 29.78 in NW 4.0 mph 4.0 mph 23 % 0.00 in
17:32 96.9 °F 54.1 °F 29.78 in North 6.0 mph 6.0 mph 24 % 0.00 in
17:37 96.7 °F 55.1 °F 29.78 in NW 3.5 mph 3.5 mph 25 % 0.00 in
17:42 96.6 °F 53.9 °F 29.78 in NW 3.5 mph 3.5 mph 24 % 0.00 in
17:47 96.4 °F 53.7 °F 29.78 in NNW 4.6 mph 4.6 mph 24 % 0.00 in
17:52 96.4 °F 53.7 °F 29.78 in NW 4.0 mph 4.0 mph 24 % 0.00 in
17:57 96.7 °F 55.1 °F 29.78 in NNW 3.5 mph 3.5 mph 25 % 0.00 in
17:59 96.8 °F 55.2 °F 29.78 in WNW 2.3 mph 2.3 mph 25 % 0.00 in
18:04 96.6 °F 53.9 °F 29.78 in WSW 3.0 mph 3.0 mph 24 % 0.00 in
18:09 96.4 °F 54.8 °F 29.78 in NNE 3.0 mph 3.0 mph 25 % 0.00 in
18:14 96.4 °F 53.7 °F 29.78 in WNW 3.5 mph 3.5 mph 24 % 0.00 in
18:19 96.6 °F 55.0 °F 29.78 in NW 3.5 mph 3.5 mph 25 % 0.00 in
18:24 96.7 °F 55.1 °F 29.78 in NW 1.2 mph 1.2 mph 25 % 0.00 in
18:29 96.8 °F 55.2 °F 29.78 in NW 3.5 mph 3.5 mph 25 % 0.00 in
18:34 96.6 °F 55.0 °F 29.78 in NW 2.0 mph 2.0 mph 25 % 0.00 in
18:39 96.6 °F 56.1 °F 29.78 in NW 4.0 mph 4.0 mph 26 % 0.00 in
18:44 96.2 °F 57.8 °F 29.78 in NW 2.3 mph 2.3 mph 28 % 0.00 in
18:49 95.9 °F 57.6 °F 29.79 in WNW 2.3 mph 2.3 mph 28 % 0.00 in
18:54 95.6 °F 58.3 °F 29.79 in NNW 2.3 mph 2.3 mph 29 % 0.00 in
19:04 94.8 °F 58.5 °F 29.79 in WNW 2.3 mph 2.3 mph 30 % 0.00 in
19:09 94.1 °F 58.8 °F 29.79 in NW 2.3 mph 2.3 mph 31 % 0.00 in
19:14 93.5 °F 58.3 °F 29.79 in WNW 2.3 mph 2.3 mph 31 % 0.00 in
19:19 93.0 °F 59.6 °F 29.79 in WNW 1.2 mph   33 % 0.00 in
19:24 92.7 °F 59.4 °F 29.79 in WNW 1.2 mph 1.2 mph 33 % 0.00 in
19:31 92.2 °F 58.9 °F 29.79 in NW 1.2 mph   33 % 0.00 in
19:36 91.9 °F 58.7 °F 29.79 in NW 1.2 mph 1.2 mph 33 % 0.00 in
19:41 91.8 °F 57.7 °F 29.79 in NE 2.3 mph 2.3 mph 32 % 0.00 in
19:47 91.7 °F 57.7 °F 29.79 in NW 1.2 mph 1.2 mph 32 % 0.00 in
19:52 91.6 °F 58.4 °F 29.79 in NW 1.2 mph 1.2 mph 33 % 0.00 in
20:02 91.0 °F 57.9 °F 29.79 in NW 1.2 mph   33 % 0.00 in
20:07 90.6 °F 58.4 °F 29.80 in Calm     34 % 0.00 in
20:12 89.9 °F 59.4 °F 29.80 in Calm     36 % 0.00 in
20:17 89.2 °F 59.5 °F 29.80 in Calm     37 % 0.00 in
20:22 88.2 °F 60.8 °F 29.80 in Calm     40 % 0.00 in
20:27 87.0 °F 61.1 °F 29.80 in Calm     42 % 0.00 in
20:32 86.3 °F 60.5 °F 29.80 in Calm     42 % 0.00 in
20:37 85.9 °F 60.1 °F 29.80 in Calm     42 % 0.00 in
20:42 85.4 °F 62.3 °F 29.80 in Calm     46 % 0.00 in
20:47 84.9 °F 61.2 °F 29.81 in Calm     45 % 0.00 in
20:52 84.5 °F 62.1 °F 29.81 in Calm     47 % 0.00 in
20:57 84.0 °F 61.6 °F 29.81 in Calm     47 % 0.00 in
21:02 83.6 °F 61.8 °F 29.81 in Calm     48 % 0.00 in
21:07 83.2 °F 63.2 °F 29.81 in Calm     51 % 0.00 in
21:12 82.8 °F 63.4 °F 29.81 in Calm     52 % 0.00 in
21:17 82.3 °F 62.9 °F 29.82 in Calm     52 % 0.00 in
21:22 82.0 °F 63.7 °F 29.82 in WNW 1.2 mph 1.2 mph 54 % 0.00 in
21:27 81.7 °F 63.4 °F 29.83 in Calm     54 % 0.00 in
21:32 81.4 °F 63.2 °F 29.83 in Calm     54 % 0.00 in
21:37 81.2 °F 63.0 °F 29.83 in Calm     54 % 0.00 in
21:42 81.1 °F 61.3 °F 29.83 in Calm     51 % 0.00 in
21:52 80.9 °F 60.5 °F 29.83 in Calm     50 % 0.00 in
21:57 80.6 °F 60.2 °F 29.84 in Calm     50 % 0.00 in
22:02 80.2 °F 60.4 °F 29.84 in Calm     51 % 0.00 in
22:07 80.1 °F 58.6 °F 29.84 in Calm     48 % 0.00 in
22:12 80.2 °F 56.3 °F 29.84 in West 1.2 mph   44 % 0.00 in
22:17 80.4 °F 55.9 °F 29.84 in West 1.2 mph 1.2 mph 43 % 0.00 in
22:22 80.3 °F 55.8 °F 29.85 in Calm     43 % 0.00 in
22:27 80.1 °F 55.6 °F 29.85 in Calm     43 % 0.00 in
22:32 79.9 °F 56.7 °F 29.85 in Calm     45 % 0.00 in
22:37 79.5 °F 56.9 °F 29.85 in Calm     46 % 0.00 in
22:42 79.0 °F 56.5 °F 29.85 in ESE 1.0 mph 1.0 mph 46 % 0.00 in
22:47 78.9 °F 55.1 °F 29.85 in ESE 1.0 mph 1.0 mph 44 % 0.00 in
22:52 79.0 °F 55.8 °F 29.86 in Calm     45 % 0.00 in
22:57 78.8 °F 55.7 °F 29.86 in Calm     45 % 0.00 in
23:02 78.7 °F 57.4 °F 29.86 in Calm     48 % 0.00 in
23:07 78.3 °F 55.2 °F 29.86 in Calm     45 % 0.00 in
23:12 78.0 °F 54.3 °F 29.86 in Calm     44 % 0.00 in
23:17 78.0 °F 53.7 °F 29.86 in ESE 1.2 mph   43 % 0.00 in
23:22 78.2 °F 53.2 °F 29.86 in Calm     42 % 0.00 in
23:27 78.4 °F 52.7 °F 29.87 in ESE 1.2 mph 1.2 mph 41 % 0.00 in
23:32 78.5 °F 52.2 °F 29.87 in Calm     40 % 0.00 in
23:37 78.6 °F 51.6 °F 29.87 in Calm     39 % 0.00 in
23:42 78.8 °F 54.4 °F 29.87 in Calm     43 % 0.00 in
23:47 78.5 °F 52.8 °F 29.87 in Calm     41 % 0.00 in
23:52 78.3 °F 53.3 °F 29.87 in Calm     42 % 0.00 in
23:57 77.7 °F 54.7 °F 29.87 in Calm     45 % 0.00 in
Park Place, Exeter, Tulare County, California, USA
Compliments of Weather Underground - 2.75 mb